createdAt,value
2023-02-09T00:03:51.306Z,-3.3
2023-02-09T00:17:58.380Z,-3.3
2023-02-09T00:22:39.805Z,-3.5
2023-02-09T00:27:21.228Z,-3.4
2023-02-09T00:32:03.557Z,-3.3
2023-02-09T00:41:28.203Z,-3.1
2023-02-09T00:46:10.657Z,-3.3
2023-02-09T00:50:52.956Z,-3.3
2023-02-09T00:55:35.299Z,-3.3
2023-02-09T01:00:17.708Z,-3.3
2023-02-09T01:05:00.032Z,-3.1
2023-02-09T01:09:41.359Z,-3.2
2023-02-09T01:14:22.681Z,-3.2
2023-02-09T01:19:05.007Z,-3.1
2023-02-09T01:28:29.559Z,-3.5
2023-02-09T01:33:11.794Z,-3.3
2023-02-09T01:37:54.118Z,-3.4
2023-02-09T01:42:36.468Z,-3.4
2023-02-09T01:47:18.690Z,-3.4
2023-02-09T01:52:00.993Z,-3.3
2023-02-09T01:56:43.224Z,-3.2
2023-02-09T02:01:25.550Z,-3.3
2023-02-09T02:06:07.781Z,-3.3
2023-02-09T02:15:32.460Z,-3.5
2023-02-09T02:24:55.977Z,-3.3
2023-02-09T02:29:38.199Z,-3.2
2023-02-09T02:34:20.559Z,-3.4
2023-02-09T02:39:02.859Z,-3.4
2023-02-09T02:43:45.078Z,-3.4
2023-02-09T02:48:27.457Z,-3.3
2023-02-09T02:53:09.658Z,-3.3
2023-02-09T03:02:34.202Z,-3.3
2023-02-09T03:07:16.533Z,-3.6
2023-02-09T03:11:58.849Z,-3.7
2023-02-09T03:16:41.074Z,-3.9
2023-02-09T03:21:22.410Z,-4
2023-02-09T03:30:46.948Z,-3.8
2023-02-09T03:35:29.281Z,-4
2023-02-09T03:40:11.504Z,-3.9
2023-02-09T03:49:36.057Z,-4.4
2023-02-09T03:54:18.387Z,-4.6
2023-02-09T03:59:00.715Z,-4.7
2023-02-09T04:03:42.958Z,-4.4
2023-02-09T04:08:25.269Z,-4.7
2023-02-09T04:13:07.491Z,-4.7
2023-02-09T04:17:49.827Z,-5
2023-02-09T04:22:31.143Z,-4.9
2023-02-09T04:27:13.373Z,-5.2
2023-02-09T04:41:20.259Z,-5.5
2023-02-09T04:46:02.614Z,-5.5
2023-02-09T04:50:44.809Z,-5.5
2023-02-09T04:55:27.138Z,-5.7
2023-02-09T05:00:09.368Z,-5.7
2023-02-09T05:04:51.695Z,-5.7
2023-02-09T05:09:34.016Z,-5.6
2023-02-09T05:14:16.258Z,-5.4
2023-02-09T05:18:58.576Z,-5.6
2023-02-09T05:23:39.889Z,-5.6
2023-02-09T05:28:22.156Z,-6
2023-02-09T05:33:04.468Z,-6
2023-02-09T05:37:46.682Z,-5.5
2023-02-09T05:42:29.031Z,-5.6
2023-02-09T05:47:11.237Z,-5.7
2023-02-09T05:51:53.581Z,-5.9
2023-02-09T05:56:35.888Z,-5.7
2023-02-09T06:01:18.157Z,-6
2023-02-09T06:06:00.440Z,-5.8
2023-02-09T06:10:42.691Z,-6
2023-02-09T06:15:23.994Z,-6.1
2023-02-09T06:20:05.318Z,-5.9
2023-02-09T06:24:47.646Z,-6.1
2023-02-09T06:29:29.878Z,-5.9
2023-02-09T06:34:12.205Z,-5.9
2023-02-09T06:38:54.432Z,-5.9
2023-02-09T06:43:36.755Z,-5.8
2023-02-09T06:48:19.085Z,-5.9
2023-02-09T06:53:01.336Z,-6.2
2023-02-09T06:57:43.713Z,-6.1
2023-02-09T07:02:25.871Z,-5.8
2023-02-09T07:07:07.202Z,-5.8
2023-02-09T07:11:48.530Z,-5.6
2023-02-09T07:16:30.853Z,-3.8
2023-02-09T07:21:13.086Z,-2.9
2023-02-09T07:25:55.410Z,-2.4
2023-02-09T07:30:37.629Z,-1.8
2023-02-09T07:35:19.964Z,-1.5
2023-02-09T07:44:44.511Z,-1.9
2023-02-09T07:49:25.836Z,-2.5
2023-02-09T07:54:08.060Z,-3.2
2023-02-09T07:58:50.392Z,-2.5
2023-02-09T08:03:32.713Z,-2
2023-02-09T08:08:14.948Z,-1.6
2023-02-09T08:12:57.281Z,-1.3
2023-02-09T08:17:39.504Z,-0.9
2023-02-09T08:22:21.834Z,0
2023-02-09T08:27:04.059Z,0.5
2023-02-09T08:31:46.388Z,0.5
2023-02-09T08:36:28.616Z,0.8
2023-02-09T08:41:10.941Z,0.6
2023-02-09T08:45:53.267Z,1
2023-02-09T08:50:34.514Z,0.7
2023-02-09T08:55:16.818Z,0.7
2023-02-09T08:59:59.051Z,0.4
2023-02-09T09:04:41.415Z,1.1
2023-02-09T09:09:23.737Z,1.3
2023-02-09T09:14:06.005Z,1.7
2023-02-09T09:18:48.286Z,2.8
2023-02-09T09:23:30.509Z,3.2
2023-02-09T09:32:55.056Z,3.2
2023-02-09T09:37:37.373Z,3.4
2023-02-09T09:42:19.600Z,3.1
2023-02-09T09:51:44.251Z,5
2023-02-09T10:05:50.016Z,6.3
2023-02-09T10:10:32.334Z,6.7
2023-02-09T10:15:14.612Z,5.6
2023-02-09T10:19:56.900Z,7.6
2023-02-09T10:29:21.454Z,8.6
2023-02-09T10:34:03.774Z,8.1
2023-02-09T10:38:45.995Z,9.2
2023-02-09T10:48:10.553Z,7.1
2023-02-09T10:57:35.124Z,8.3
2023-02-09T11:02:17.430Z,9
2023-02-09T11:06:59.676Z,8.3
2023-02-09T11:11:41.988Z,11.8
2023-02-09T11:16:24.212Z,8.7
2023-02-09T11:25:48.778Z,14.1
2023-02-09T11:35:13.329Z,12.7
2023-02-09T11:39:55.677Z,12.2
2023-02-09T11:44:37.900Z,12.5
2023-02-09T11:54:02.432Z,11.5
2023-02-09T12:03:26.981Z,10.8
2023-02-09T12:08:09.304Z,10.6
2023-02-09T12:12:51.627Z,10.8
2023-02-09T12:26:58.412Z,11.9
2023-02-09T12:31:40.726Z,10
2023-02-09T12:41:05.279Z,10.3
2023-02-09T12:50:29.925Z,11.8
2023-02-09T12:55:12.255Z,11.3
2023-02-09T13:09:19.330Z,15.5
2023-02-09T13:14:01.665Z,12.3
2023-02-09T13:18:43.072Z,14.7
2023-02-09T13:23:25.456Z,13.5
2023-02-09T13:28:07.738Z,14.4
2023-02-09T13:32:50.047Z,14.7
2023-02-09T13:37:32.649Z,14.8
2023-02-09T13:42:14.796Z,15.6
2023-02-09T13:46:57.126Z,14.1
2023-02-09T13:56:21.876Z,15.8
2023-02-09T14:01:04.197Z,14.4
2023-02-09T14:10:28.946Z,12
2023-02-09T14:15:11.314Z,12.7
2023-02-09T14:19:53.716Z,12
2023-02-09T14:24:35.932Z,9.6
2023-02-09T14:29:18.350Z,10.5
2023-02-09T14:43:25.323Z,10.2
2023-02-09T14:48:07.754Z,9.6
2023-02-09T14:52:50.074Z,9.2
2023-02-09T14:57:32.407Z,9.6
2023-02-09T15:02:14.719Z,9
2023-02-09T15:06:57.167Z,6.6
2023-02-09T15:11:39.473Z,6
2023-02-09T15:16:21.789Z,5.8
2023-02-09T15:21:04.211Z,5.3
2023-02-09T15:30:28.853Z,4.4
2023-02-09T15:35:11.177Z,4.2
2023-02-09T15:39:53.612Z,3.6
2023-02-09T15:54:00.580Z,2.7
2023-02-09T15:58:43.010Z,2.7
2023-02-09T16:03:25.326Z,2.3
2023-02-09T16:08:07.660Z,2.2
2023-02-09T16:12:50.173Z,2
2023-02-09T16:17:32.828Z,1.9
2023-02-09T16:22:14.216Z,1.7
2023-02-09T16:26:56.767Z,1.6
2023-02-09T16:31:39.269Z,1.2
2023-02-09T16:36:21.695Z,1.2
2023-02-09T16:41:04.225Z,1.1
2023-02-09T16:45:46.748Z,0.7
2023-02-09T16:50:29.172Z,0.8
2023-02-09T17:04:36.648Z,0.3
2023-02-09T17:09:18.290Z,0.1
2023-02-09T17:14:00.815Z,0
2023-02-09T17:23:24.845Z,-0.2
2023-02-09T17:28:07.366Z,0
2023-02-09T17:32:49.893Z,0
2023-02-09T17:37:32.317Z,-0.4
2023-02-09T17:46:57.374Z,-0.3
2023-02-09T17:51:39.794Z,-0.4
2023-02-09T17:56:22.320Z,-0.4
2023-02-09T18:01:04.737Z,-0.7
2023-02-09T18:05:47.495Z,-0.7
2023-02-09T18:10:29.793Z,-0.9
2023-02-09T18:24:36.368Z,-1.7
2023-02-09T18:29:18.907Z,-2.3
2023-02-09T18:34:00.529Z,-2.1
2023-02-09T18:38:42.939Z,-1.9
2023-02-09T18:43:24.562Z,-1.9
2023-02-09T18:48:07.095Z,-2.1
2023-02-09T18:52:49.608Z,-2.4
2023-02-09T18:57:32.060Z,-2.3
2023-02-09T19:02:14.559Z,-2.4
2023-02-09T19:06:57.103Z,-2.2
2023-02-09T19:11:39.561Z,-2.4
2023-02-09T19:16:22.051Z,-2.6
2023-02-09T19:21:04.472Z,-2.9
2023-02-09T19:25:46.992Z,-2.8
2023-02-09T19:30:28.618Z,-2.9
2023-02-09T19:35:11.146Z,-1.8
2023-02-09T19:39:52.776Z,-1.8
2023-02-09T19:44:35.215Z,-1.7
2023-02-09T19:49:17.736Z,-1.9
2023-02-09T19:54:00.267Z,-2.1
2023-02-09T19:58:42.688Z,-2
2023-02-09T20:08:07.628Z,-2.7
2023-02-09T20:12:50.330Z,-2.8
2023-02-09T20:17:32.689Z,-2.8
2023-02-09T20:22:15.280Z,-3
2023-02-09T20:26:57.736Z,-3.3
2023-02-09T20:31:40.328Z,-3.9
2023-02-09T20:36:21.705Z,-3.6
2023-02-09T20:41:03.030Z,-3.6
2023-02-09T20:45:45.671Z,-3.4
2023-02-09T20:55:10.168Z,-3.9
2023-02-09T20:59:52.690Z,-3.9
2023-02-09T21:09:16.049Z,-4
2023-02-09T21:13:57.373Z,-4
2023-02-09T21:18:39.883Z,-4.2
2023-02-09T21:23:21.928Z,-4.6
2023-02-09T21:28:04.440Z,-4.5
2023-02-09T21:32:46.580Z,-4.5
2023-02-09T21:46:53.528Z,-4.8
2023-02-09T21:51:35.825Z,-4.9
2023-02-09T21:56:18.145Z,-4.7
2023-02-09T22:01:00.268Z,-4.7
2023-02-09T22:05:41.543Z,-4.8
2023-02-09T22:10:22.873Z,-4.7
2023-02-09T22:15:05.099Z,-5
2023-02-09T22:19:47.427Z,-5
2023-02-09T22:29:11.970Z,-4.9
2023-02-09T22:33:54.315Z,-5.2
2023-02-09T22:38:36.529Z,-5.4
2023-02-09T22:43:18.853Z,-5.1
2023-02-09T22:48:01.172Z,-4.8
2023-02-09T22:52:43.408Z,-5.1
2023-02-09T22:57:25.752Z,-4.9
2023-02-09T23:02:07.966Z,-4.9
2023-02-09T23:06:50.300Z,-5
2023-02-09T23:11:31.621Z,-5.3
2023-02-09T23:16:13.848Z,-5.3
2023-02-09T23:20:56.192Z,-5.3
2023-02-09T23:30:20.720Z,-5.8
2023-02-09T23:35:02.081Z,-6
2023-02-09T23:39:44.391Z,-5.6
2023-02-09T23:44:26.587Z,-5.7
2023-02-09T23:49:08.946Z,-5.6
2023-02-09T23:53:50.252Z,-5.7
2023-02-09T23:58:31.573Z,-5.5
